Time;durP1;ratioP1;P1;durP2;ratioP2;P2;SDS_P1;SDS_P2;PMS_P1;PMS_P2;Temp;Humidity;BMP_temperature;BMP_pressure;BME280_temperature;BME280_humidity;BME280_pressure;Samples;Min_cycle;Max_cycle;Signal;HPM_P1;HPM_P2
2022/12/10 00:01:07;;;;;;;7.90;3.35;;;;;;;;;;5007911;28;20018;-74
2022/12/10 00:03:33;;;;;;;8.32;3.60;;;;;;;;;;5011815;28;20111;-74
2022/12/10 00:06:02;;;;;;;6.35;4.18;;;;;;;;;;5026249;28;20465;-74
2022/12/10 00:08:28;;;;;;;11.60;4.07;;;;;;;;;;5004284;28;20037;-74
2022/12/10 00:10:53;;;;;;;6.38;3.35;;;;;;;;;;5037878;28;20033;-74
2022/12/10 00:13:19;;;;;;;14.43;4.50;;;;;;;;;;5033395;28;20049;-74
2022/12/10 00:15:44;;;;;;;5.90;3.55;;;;;;;;;;5019587;28;20052;-74
2022/12/10 00:18:09;;;;;;;6.13;3.35;;;;;;;;;;5015622;28;20046;-74
2022/12/10 00:20:36;;;;;;;5.80;2.95;;;;;;;;;;5022617;28;20473;-74
2022/12/10 00:23:02;;;;;;;6.35;3.83;;;;;;;;;;5024072;28;20037;-74
2022/12/10 00:25:27;;;;;;;6.18;3.40;;;;;;;;;;5022727;28;20048;-74
2022/12/10 00:27:52;;;;;;;11.30;3.65;;;;;;;;;;5023832;28;20114;-74
2022/12/10 00:30:18;;;;;;;13.35;4.10;;;;;;;;;;5025270;28;20470;-74
2022/12/10 00:32:43;;;;;;;6.00;3.55;;;;;;;;;;5032249;28;20043;-74
2022/12/10 00:35:09;;;;;;;5.65;3.08;;;;;;;;;;5032326;28;20384;-74
2022/12/10 00:37:34;;;;;;;4.95;3.22;;;;;;;;;;5023975;28;20030;-74
2022/12/10 00:39:59;;;;;;;4.30;3.15;;;;;;;;;;5022182;28;20092;-74
2022/12/10 00:42:25;;;;;;;6.38;3.63;;;;;;;;;;5026046;28;20414;-74
2022/12/10 00:44:50;;;;;;;5.88;3.10;;;;;;;;;;5021481;28;20112;-74
2022/12/10 00:47:15;;;;;;;10.43;3.63;;;;;;;;;;5026926;28;20037;-73
2022/12/10 00:49:41;;;;;;;5.50;2.83;;;;;;;;;;5025890;28;20053;-74
2022/12/10 00:52:06;;;;;;;5.00;2.53;;;;;;;;;;5027127;28;20073;-74
2022/12/10 00:54:31;;;;;;;8.02;3.10;;;;;;;;;;5032398;28;20034;-74
2022/12/10 00:56:57;;;;;;;7.60;3.28;;;;;;;;;;5028283;28;20026;-74
2022/12/10 00:59:22;;;;;;;5.68;3.03;;;;;;;;;;5035676;28;20034;-74
2022/12/10 01:01:48;;;;;;;8.68;3.22;;;;;;;;;;5029352;28;20080;-74
2022/12/10 01:04:16;;;;;;;8.25;4.10;;;;;;;;;;5025193;28;20041;-74
2022/12/10 01:06:46;;;;;;;10.95;3.03;;;;;;;;;;5021247;28;20464;-74
2022/12/10 01:09:15;;;;;;;9.15;4.45;;;;;;;;;;5041325;28;20037;-74
2022/12/10 01:11:41;;;;;;;11.07;3.80;;;;;;;;;;5006089;28;20044;-74
2022/12/10 01:14:09;;;;;;;6.43;4.05;;;;;;;;;;5033364;28;20049;-74
2022/12/10 01:16:35;;;;;;;7.68;3.67;;;;;;;;;;5039475;28;20069;-74
2022/12/10 01:19:01;;;;;;;7.05;3.90;;;;;;;;;;5026471;28;20083;-74
2022/12/10 01:21:28;;;;;;;5.82;3.70;;;;;;;;;;5037253;28;20384;-74
2022/12/10 01:23:54;;;;;;;10.25;5.05;;;;;;;;;;5002183;28;20092;-74
2022/12/10 01:26:24;;;;;;;18.50;4.68;;;;;;;;;;5008918;28;20037;-74
2022/12/10 01:28:50;;;;;;;12.13;5.20;;;;;;;;;;5006391;28;20021;-74
2022/12/10 01:31:24;;;;;;;13.48;3.95;;;;;;;;;;5031364;28;20473;-74
2022/12/10 01:33:50;;;;;;;;;;;;;;;;;;5022721;28;20456;-74
2022/12/10 01:36:18;;;;;;;8.50;4.38;;;;;;;;;;5021873;28;20012;-74
2022/12/10 01:38:44;;;;;;;15.20;4.97;;;;;;;;;;5034943;28;20081;-74
2022/12/10 01:41:21;;;;;;;7.53;3.42;;;;;;;;;;5008207;28;20132;-74
2022/12/10 01:44:08;;;;;;;6.70;3.72;;;;;;;;;;5005869;28;20473;-74
2022/12/10 01:46:38;;;;;;;14.75;5.57;;;;;;;;;;5014104;28;20056;-74
2022/12/10 01:49:06;;;;;;;9.57;4.70;;;;;;;;;;5042954;28;20505;-74
2022/12/10 01:51:35;;;;;;;7.95;4.43;;;;;;;;;;5021862;28;20038;-74
2022/12/10 01:54:01;;;;;;;7.88;4.10;;;;;;;;;;5003641;28;20488;-74
2022/12/10 01:56:27;;;;;;;6.10;3.22;;;;;;;;;;5009966;28;20042;-74
2022/12/10 01:58:54;;;;;;;7.38;3.90;;;;;;;;;;5015825;28;20099;-74
2022/12/10 02:01:44;;;;;;;6.25;2.97;;;;;;;;;;5007870;28;20069;-74
2022/12/10 02:04:31;;;;;;;3.78;2.60;;;;;;;;;;5015668;28;20033;-74
2022/12/10 02:07:04;;;;;;;6.65;2.60;;;;;;;;;;5019865;28;20026;-74
2022/12/10 02:09:32;;;;;;;4.13;2.65;;;;;;;;;;5000717;28;20030;-74
2022/12/10 02:12:04;;;;;;;4.72;2.58;;;;;;;;;;5029154;28;20048;-74
2022/12/10 02:14:55;;;;;;;6.72;2.72;;;;;;;;;;5048568;28;20168;-74
2022/12/10 02:17:51;;;;;;;5.28;2.97;;;;;;;;;;5028343;28;20057;-74
2022/12/10 02:20:28;;;;;;;2.83;2.10;;;;;;;;;;5001283;28;20072;-74
2022/12/10 02:22:57;;;;;;;3.50;2.00;;;;;;;;;;5002470;28;20058;-74
2022/12/10 02:25:46;;;;;;;10.50;3.78;;;;;;;;;;5040981;28;20033;-74
2022/12/10 02:28:22;;;;;;;9.65;2.53;;;;;;;;;;5009725;28;20378;-74
2022/12/10 02:30:49;;;;;;;5.70;2.83;;;;;;;;;;5009716;28;21352;-74
2022/12/10 02:33:16;;;;;;;3.28;2.03;;;;;;;;;;5015688;28;20041;-74
2022/12/10 02:35:42;;;;;;;6.68;2.50;;;;;;;;;;5029707;28;20056;-74
2022/12/10 02:38:20;;;;;;;6.47;3.22;;;;;;;;;;5015324;28;20037;-74
2022/12/10 02:40:50;;;;;;;3.05;2.13;;;;;;;;;;5005427;28;20042;-74
2022/12/10 02:43:16;;;;;;;7.00;3.55;;;;;;;;;;5042318;28;20068;-73
2022/12/10 02:45:43;;;;;;;13.63;3.22;;;;;;;;;;5023021;28;20033;-74
2022/12/10 02:48:09;;;;;;;8.20;3.97;;;;;;;;;;5045599;28;20064;-74
2022/12/10 02:50:34;;;;;;;6.30;2.63;;;;;;;;;;5002599;28;20076;-73
2022/12/10 02:53:00;;;;;;;5.65;2.00;;;;;;;;;;5042343;28;20064;-74
2022/12/10 02:55:25;;;;;;;6.35;3.70;;;;;;;;;;5023375;28;20034;-74
2022/12/10 02:58:15;;;;;;;6.93;2.35;;;;;;;;;;5017313;28;20393;-74
2022/12/10 03:01:11;;;;;;;3.13;1.98;;;;;;;;;;5030138;28;20436;-74
2022/12/10 03:03:44;;;;;;;5.90;1.92;;;;;;;;;;5013048;28;20050;-74
2022/12/10 03:06:17;;;;;;;5.10;2.13;;;;;;;;;;5034826;28;20037;-74
2022/12/10 03:08:50;;;;;;;7.03;3.25;;;;;;;;;;5009048;28;20108;-74
2022/12/10 03:11:24;;;;;;;4.63;1.95;;;;;;;;;;5028673;28;20034;-74
2022/12/10 03:13:53;;;;;;;5.50;2.53;;;;;;;;;;5040180;28;20065;-74
2022/12/10 03:16:18;;;;;;;4.70;2.55;;;;;;;;;;5022633;28;20099;-74
2022/12/10 03:18:47;;;;;;;4.80;2.60;;;;;;;;;;5006572;28;20462;-74
2022/12/10 03:21:13;;;;;;;4.93;3.00;;;;;;;;;;4998959;28;20037;-74
2022/12/10 03:23:41;;;;;;;4.47;2.40;;;;;;;;;;5042136;28;20124;-74
2022/12/10 03:26:08;;;;;;;7.20;2.78;;;;;;;;;;4999787;28;20473;-74
2022/12/10 03:28:38;;;;;;;8.10;3.22;;;;;;;;;;5045628;28;20037;-74
2022/12/10 03:31:04;;;;;;;5.10;2.95;;;;;;;;;;5002738;28;20033;-74
2022/12/10 03:33:30;;;;;;;10.55;3.60;;;;;;;;;;5042724;28;20477;-74
2022/12/10 03:35:56;;;;;;;8.35;3.65;;;;;;;;;;5028224;28;20046;-74
2022/12/10 03:38:22;;;;;;;3.55;2.45;;;;;;;;;;5021324;28;20034;-74
2022/12/10 03:40:47;;;;;;;2.67;1.95;;;;;;;;;;5036428;28;20506;-74
2022/12/10 03:43:13;;;;;;;3.25;1.70;;;;;;;;;;5036972;28;20141;-74
2022/12/10 03:45:40;;;;;;;3.20;1.85;;;;;;;;;;5028631;28;20056;-74
2022/12/10 03:48:05;;;;;;;2.17;1.55;;;;;;;;;;5029675;28;20054;-74
2022/12/10 03:50:30;;;;;;;2.20;1.90;;;;;;;;;;5022820;28;20118;-74
2022/12/10 03:52:56;;;;;;;4.03;1.73;;;;;;;;;;5022696;28;20040;-74
2022/12/10 03:55:21;;;;;;;5.50;2.78;;;;;;;;;;5024419;28;20457;-74
2022/12/10 03:57:47;;;;;;;3.90;2.33;;;;;;;;;;5019449;28;20037;-75
2022/12/10 04:00:13;;;;;;;4.50;2.70;;;;;;;;;;5031618;28;20037;-74
2022/12/10 04:02:39;;;;;;;19.80;5.22;;;;;;;;;;5009879;28;20038;-74
2022/12/10 04:05:06;;;;;;;11.90;5.30;;;;;;;;;;5027481;28;20050;-74
2022/12/10 04:07:32;;;;;;;14.88;5.05;;;;;;;;;;5021308;28;20378;-73
2022/12/10 04:09:57;;;;;;;14.38;5.53;;;;;;;;;;5026383;28;20025;-74
2022/12/10 04:12:22;;;;;;;5.65;3.55;;;;;;;;;;5022301;28;20068;-74
2022/12/10 04:17:33;;;;;;;3.67;1.75;;;;;;;;;;5026387;28;20401;-74
2022/12/10 04:19:58;;;;;;;4.47;1.95;;;;;;;;;;5022482;28;20188;-74
2022/12/10 04:27:56;;;;;;;5.28;1.42;;;;;;;;;;5010219;28;20467;-74
2022/12/10 04:30:22;;;;;;;3.90;1.95;;;;;;;;;;5030928;28;20038;-74
2022/12/10 04:32:47;;;;;;;2.15;1.42;;;;;;;;;;5029491;28;20067;-74
2022/12/10 04:35:12;;;;;;;4.25;2.25;;;;;;;;;;5025431;28;20068;-74
2022/12/10 04:37:38;;;;;;;5.25;3.08;;;;;;;;;;5025917;28;20029;-74
2022/12/10 04:40:04;;;;;;;2.63;1.60;;;;;;;;;;5040292;28;20045;-74
2022/12/10 04:42:29;;;;;;;8.70;2.03;;;;;;;;;;4994045;28;20034;-74
2022/12/10 04:44:55;;;;;;;4.75;2.13;;;;;;;;;;5025431;28;20025;-74
2022/12/10 04:47:20;;;;;;;3.78;2.13;;;;;;;;;;5031057;28;20049;-74
2022/12/10 04:49:45;;;;;;;2.53;1.50;;;;;;;;;;5032485;28;20042;-74
2022/12/10 04:52:12;;;;;;;2.60;1.58;;;;;;;;;;5024482;28;20474;-74
2022/12/10 04:54:38;;;;;;;2.95;1.83;;;;;;;;;;5007991;28;20045;-74
2022/12/10 04:57:03;;;;;;;3.22;2.00;;;;;;;;;;5022408;28;20038;-74
2022/12/10 04:59:29;;;;;;;2.63;1.67;;;;;;;;;;5029184;28;20116;-74
2022/12/10 05:01:54;;;;;;;2.97;1.92;;;;;;;;;;5027237;28;20421;-74
2022/12/10 05:04:20;;;;;;;8.35;3.58;;;;;;;;;;5029277;28;20038;-74
2022/12/10 05:06:47;;;;;;;5.38;2.95;;;;;;;;;;5034239;28;20069;-74
2022/12/10 05:09:13;;;;;;;2.90;1.67;;;;;;;;;;5015919;28;20045;-74
2022/12/10 05:11:39;;;;;;;3.47;1.83;;;;;;;;;;5030461;28;20473;-74
2022/12/10 05:14:05;;;;;;;7.53;2.85;;;;;;;;;;5026037;28;20042;-74
2022/12/10 05:16:32;;;;;;;3.83;2.22;;;;;;;;;;5006206;28;20052;-74
2022/12/10 05:18:58;;;;;;;3.03;2.08;;;;;;;;;;5037919;28;20030;-74
2022/12/10 05:23:27;;;;;;;4.47;1.67;;;;;;;;;;5022252;28;20380;-74
2022/12/10 05:24:10;;;;;;;2.47;1.77;;;;;;;;;;5030729;28;20481;-74
2022/12/10 05:26:36;;;;;;;7.43;2.03;;;;;;;;;;5023062;28;20052;-74
2022/12/10 05:29:01;;;;;;;2.20;1.50;;;;;;;;;;5026409;28;20051;-74
2022/12/10 05:31:28;;;;;;;6.15;2.25;;;;;;;;;;5029160;28;20025;-74
2022/12/10 05:33:54;;;;;;;3.00;1.10;;;;;;;;;;5030787;28;20477;-74
2022/12/10 05:36:22;;;;;;;2.72;1.63;;;;;;;;;;5026617;28;20052;-74
2022/12/10 05:38:48;;;;;;;2.22;1.73;;;;;;;;;;5026877;28;20113;-74
2022/12/10 05:41:22;;;;;;;3.30;1.50;;;;;;;;;;5039950;28;20133;-74
2022/12/10 05:43:48;;;;;;;;;;;;;;;;;;5002670;28;20037;-74
2022/12/10 05:46:16;;;;;;;2.17;1.35;;;;;;;;;;5002870;28;19913;-74
2022/12/10 05:48:41;;;;;;;4.00;1.75;;;;;;;;;;5020667;28;20490;-74
2022/12/10 05:51:09;;;;;;;2.47;1.35;;;;;;;;;;5024496;28;20046;-74
2022/12/10 05:53:36;;;;;;;5.28;1.10;;;;;;;;;;5022360;28;20363;-74
2022/12/10 05:56:07;;;;;;;2.70;1.70;;;;;;;;;;5040670;28;20489;-75
2022/12/10 05:58:33;;;;;;;1.33;1.00;;;;;;;;;;5003946;28;20033;-74
2022/12/10 06:00:59;;;;;;;2.47;1.02;;;;;;;;;;5035415;28;20033;-74
2022/12/10 06:03:25;;;;;;;4.05;1.55;;;;;;;;;;5025167;28;20477;-74
2022/12/10 06:05:51;;;;;;;4.50;1.42;;;;;;;;;;5021453;28;20084;-74
2022/12/10 06:08:16;;;;;;;3.03;1.10;;;;;;;;;;5022524;28;20444;-74
2022/12/10 06:10:41;;;;;;;2.58;1.55;;;;;;;;;;5017718;28;20527;-74
2022/12/10 06:13:07;;;;;;;3.25;1.85;;;;;;;;;;5028427;28;20041;-74
2022/12/10 06:15:32;;;;;;;1.92;1.38;;;;;;;;;;5023043;28;20041;-74
2022/12/10 06:17:58;;;;;;;3.25;1.20;;;;;;;;;;5028266;28;20048;-74
2022/12/10 06:20:25;;;;;;;4.50;1.08;;;;;;;;;;4999232;28;20109;-74
2022/12/10 06:22:50;;;;;;;3.25;1.40;;;;;;;;;;5030319;28;20021;-74
2022/12/10 06:25:16;;;;;;;3.05;1.10;;;;;;;;;;5022319;28;20489;-74
2022/12/10 06:27:42;;;;;;;2.88;1.65;;;;;;;;;;5027158;28;20392;-74
2022/12/10 06:30:08;;;;;;;1.98;1.52;;;;;;;;;;5016847;28;20116;-74
2022/12/10 06:32:33;;;;;;;2.20;1.10;;;;;;;;;;5023879;28;20056;-74
2022/12/10 06:34:59;;;;;;;3.33;2.25;;;;;;;;;;5022537;28;20042;-73
2022/12/10 06:37:24;;;;;;;1.70;1.00;;;;;;;;;;5024150;28;20120;-73
2022/12/10 06:39:53;;;;;;;3.08;1.27;;;;;;;;;;5017748;28;20111;-74
2022/12/10 06:42:19;;;;;;;1.98;1.20;;;;;;;;;;5017218;28;20038;-74
2022/12/10 06:44:45;;;;;;;2.13;1.00;;;;;;;;;;5039795;28;20028;-74
2022/12/10 06:47:11;;;;;;;7.88;1.73;;;;;;;;;;5007350;28;20041;-74
2022/12/10 06:49:36;;;;;;;2.90;1.45;;;;;;;;;;5005180;28;20045;-74
2022/12/10 06:52:02;;;;;;;1.95;1.08;;;;;;;;;;5029909;28;20033;-74
2022/12/10 06:54:28;;;;;;;1.42;1.23;;;;;;;;;;5003748;28;20116;-75
2022/12/10 06:56:53;;;;;;;2.15;1.30;;;;;;;;;;5027617;28;20116;-74
2022/12/10 06:59:20;;;;;;;3.00;1.83;;;;;;;;;;5018733;28;20061;-74
2022/12/10 07:01:46;;;;;;;2.03;1.20;;;;;;;;;;5017214;28;20038;-74
2022/12/10 07:04:11;;;;;;;2.33;1.50;;;;;;;;;;5028141;28;20037;-74
2022/12/10 07:06:36;;;;;;;5.45;1.75;;;;;;;;;;5015582;28;20034;-74
2022/12/10 07:09:02;;;;;;;3.40;1.10;;;;;;;;;;5039806;28;20469;-74
2022/12/10 07:11:30;;;;;;;3.63;0.95;;;;;;;;;;5029692;28;20061;-73
2022/12/10 07:13:56;;;;;;;1.95;1.17;;;;;;;;;;5024437;28;20021;-75
2022/12/10 07:16:25;;;;;;;1.88;1.20;;;;;;;;;;5021942;28;20053;-74
2022/12/10 07:18:51;;;;;;;1.33;0.93;;;;;;;;;;5032281;28;20041;-74
2022/12/10 07:21:27;;;;;;;2.88;1.17;;;;;;;;;;4996854;28;20033;-73
2022/12/10 07:23:57;;;;;;;1.33;1.10;;;;;;;;;;5003677;28;20044;-73
2022/12/10 07:26:23;;;;;;;0.93;0.70;;;;;;;;;;5016502;28;20113;-73
2022/12/10 07:28:48;;;;;;;2.90;1.00;;;;;;;;;;5021290;28;20442;-74
2022/12/10 07:31:14;;;;;;;2.63;1.10;;;;;;;;;;5019030;28;20041;-74
2022/12/10 07:33:39;;;;;;;2.50;1.65;;;;;;;;;;5027248;28;20034;-73
2022/12/10 07:36:06;;;;;;;1.52;1.00;;;;;;;;;;5026372;28;20041;-74
2022/12/10 07:38:32;;;;;;;1.67;1.02;;;;;;;;;;5039953;28;20038;-74
2022/12/10 07:40:57;;;;;;;1.00;0.90;;;;;;;;;;5027338;28;20050;-74
2022/12/10 07:43:23;;;;;;;0.85;0.60;;;;;;;;;;5022665;28;20038;-73
2022/12/10 07:45:48;;;;;;;1.58;1.17;;;;;;;;;;5019705;28;20037;-74
2022/12/10 07:48:14;;;;;;;2.45;0.93;;;;;;;;;;5015964;28;20050;-75
2022/12/10 07:50:39;;;;;;;6.65;2.90;;;;;;;;;;5026036;28;20029;-73
2022/12/10 07:53:04;;;;;;;2.75;1.90;;;;;;;;;;5030050;28;20490;-73
2022/12/10 07:55:30;;;;;;;2.42;1.67;;;;;;;;;;5027507;28;20500;-74
2022/12/10 07:57:56;;;;;;;3.60;2.78;;;;;;;;;;5016838;28;20046;-74
2022/12/10 08:00:22;;;;;;;6.03;2.25;;;;;;;;;;5019658;28;20041;-74
2022/12/10 08:02:47;;;;;;;7.80;1.50;;;;;;;;;;5017718;28;20041;-74
2022/12/10 08:05:13;;;;;;;5.55;1.05;;;;;;;;;;5023320;28;20045;-74
2022/12/10 08:07:38;;;;;;;1.77;1.02;;;;;;;;;;5013828;28;20468;-74
2022/12/10 08:10:04;;;;;;;2.30;1.52;;;;;;;;;;5008279;28;20054;-74
2022/12/10 08:12:29;;;;;;;2.45;1.50;;;;;;;;;;5003450;28;20389;-74
2022/12/10 08:14:55;;;;;;;3.10;1.80;;;;;;;;;;5019379;28;20062;-73
2022/12/10 08:17:20;;;;;;;2.10;1.00;;;;;;;;;;5017039;28;20045;-74
2022/12/10 08:19:45;;;;;;;1.05;0.65;;;;;;;;;;5031538;28;20049;-74
2022/12/10 08:22:11;;;;;;;0.85;0.68;;;;;;;;;;5023506;28;20444;-74
2022/12/10 08:24:36;;;;;;;5.32;1.75;;;;;;;;;;5030108;28;20029;-74
2022/12/10 08:27:02;;;;;;;1.15;0.77;;;;;;;;;;5029605;28;20037;-73
2022/12/10 08:29:27;;;;;;;0.98;0.73;;;;;;;;;;5038041;28;20052;-74
2022/12/10 08:31:52;;;;;;;3.17;1.88;;;;;;;;;;5022903;28;20029;-74
2022/12/10 08:34:19;;;;;;;19.48;5.15;;;;;;;;;;5022945;28;20385;-74
2022/12/10 08:36:45;;;;;;;9.43;3.95;;;;;;;;;;5020941;28;20117;-75
2022/12/10 08:39:14;;;;;;;7.80;4.05;;;;;;;;;;5001262;28;20022;-74
2022/12/10 08:41:40;;;;;;;3.28;2.13;;;;;;;;;;5024335;28;20096;-74
2022/12/10 08:44:05;;;;;;;3.65;2.30;;;;;;;;;;5026826;28;20429;-74
2022/12/10 08:46:31;;;;;;;3.67;1.70;;;;;;;;;;5030200;28;20425;-74
2022/12/10 08:48:56;;;;;;;5.40;2.83;;;;;;;;;;5031675;28;20056;-75
2022/12/10 08:51:22;;;;;;;6.82;3.03;;;;;;;;;;5006515;28;20121;-74
2022/12/10 08:53:48;;;;;;;3.63;2.25;;;;;;;;;;5020424;28;20381;-74
2022/12/10 08:56:13;;;;;;;8.55;2.30;;;;;;;;;;4974873;28;20044;-74
2022/12/10 08:58:39;;;;;;;7.35;2.78;;;;;;;;;;5013036;28;20050;-73
2022/12/10 09:01:09;;;;;;;3.35;2.53;;;;;;;;;;5028963;28;20044;-73
2022/12/10 09:03:36;;;;;;;4.38;2.05;;;;;;;;;;4994429;28;20474;-74
2022/12/10 09:06:06;;;;;;;2.65;1.50;;;;;;;;;;5019810;28;20037;-73
2022/12/10 09:08:31;;;;;;;5.82;2.33;;;;;;;;;;5019238;28;20029;-73
2022/12/10 09:10:57;;;;;;;6.25;2.53;;;;;;;;;;5023311;28;20890;-73
2022/12/10 09:13:22;;;;;;;5.80;2.30;;;;;;;;;;5017213;28;20518;-73
2022/12/10 09:15:53;;;;;;;8.23;1.75;;;;;;;;;;5027217;28;20040;-73
2022/12/10 09:18:19;;;;;;;4.50;2.17;;;;;;;;;;5024590;28;20484;-73
2022/12/10 09:20:44;;;;;;;6.32;2.50;;;;;;;;;;5022190;28;20128;-73
2022/12/10 09:23:10;;;;;;;5.70;2.30;;;;;;;;;;5018965;28;20053;-74
2022/12/10 09:25:36;;;;;;;5.72;2.40;;;;;;;;;;5023630;28;20054;-74
2022/12/10 09:28:01;;;;;;;6.60;2.60;;;;;;;;;;5005068;28;20041;-74
2022/12/10 09:30:27;;;;;;;5.25;2.05;;;;;;;;;;5015288;28;20033;-72
2022/12/10 09:32:53;;;;;;;4.28;2.28;;;;;;;;;;5014408;28;20049;-75
2022/12/10 09:35:18;;;;;;;6.38;2.25;;;;;;;;;;5020632;28;20041;-74
2022/12/10 09:37:43;;;;;;;8.98;2.28;;;;;;;;;;5011584;28;20104;-74
2022/12/10 09:40:15;;;;;;;9.88;2.80;;;;;;;;;;4993314;28;20045;-75
2022/12/10 09:43:05;;;;;;;7.72;2.58;;;;;;;;;;5030684;28;20519;-74
2022/12/10 09:45:42;;;;;;;5.82;2.40;;;;;;;;;;5013115;28;20136;-74
2022/12/10 09:48:20;;;;;;;6.50;2.83;;;;;;;;;;5010050;28;20080;-73
2022/12/10 09:51:00;;;;;;;6.45;2.40;;;;;;;;;;5007223;28;20106;-73
2022/12/10 09:53:28;;;;;;;6.43;2.78;;;;;;;;;;5017492;28;20041;-74
2022/12/10 09:55:53;;;;;;;6.45;3.70;;;;;;;;;;5028417;28;20048;-74
2022/12/10 09:58:25;;;;;;;11.35;4.97;;;;;;;;;;5019102;28;20108;-73
2022/12/10 10:00:56;;;;;;;12.38;6.20;;;;;;;;;;5007492;28;20045;-73
2022/12/10 10:03:21;;;;;;;12.45;6.00;;;;;;;;;;5042892;28;20042;-73
2022/12/10 10:05:49;;;;;;;9.95;5.97;;;;;;;;;;5047661;28;20381;-73
2022/12/10 10:08:23;;;;;;;7.93;4.10;;;;;;;;;;5007180;28;20099;-73
2022/12/10 10:10:49;;;;;;;11.43;5.45;;;;;;;;;;5040569;28;20112;-74
2022/12/10 10:13:30;;;;;;;11.70;5.47;;;;;;;;;;5021251;28;20167;-74
2022/12/10 10:15:56;;;;;;;10.70;6.75;;;;;;;;;;5031162;28;20481;-74
2022/12/10 10:18:38;;;;;;;15.70;5.75;;;;;;;;;;5030485;28;20038;-74
2022/12/10 10:21:05;;;;;;;10.68;4.80;;;;;;;;;;5040667;28;20048;-73
2022/12/10 10:23:31;;;;;;;13.68;5.05;;;;;;;;;;5011195;28;20571;-74
2022/12/10 10:25:56;;;;;;;10.15;4.72;;;;;;;;;;5027175;28;20167;-73
2022/12/10 10:28:23;;;;;;;8.38;4.90;;;;;;;;;;5028310;28;20034;-73
2022/12/10 10:30:50;;;;;;;11.07;5.00;;;;;;;;;;5043389;28;20117;-73
2022/12/10 10:33:16;;;;;;;8.45;4.53;;;;;;;;;;5039153;28;20124;-73
2022/12/10 10:35:53;;;;;;;8.55;4.75;;;;;;;;;;5037224;28;20108;-73
2022/12/10 10:38:26;;;;;;;12.50;4.95;;;;;;;;;;5000378;28;20486;-74
2022/12/10 10:40:54;;;;;;;11.13;4.78;;;;;;;;;;5032916;28;20041;-73
2022/12/10 10:43:22;;;;;;;10.90;5.35;;;;;;;;;;5041957;28;20408;-73
2022/12/10 10:45:49;;;;;;;13.18;5.25;;;;;;;;;;5026565;28;20044;-73
2022/12/10 10:48:23;;;;;;;14.52;8.10;;;;;;;;;;5023734;28;20057;-74
2022/12/10 10:50:55;;;;;;;;;;;;;;;;;;5020280;28;20091;-73
2022/12/10 10:53:31;;;;;;;11.00;5.28;;;;;;;;;;5022055;28;19913;-74
2022/12/10 10:56:11;;;;;;;14.05;6.75;;;;;;;;;;5018087;28;20425;-73
2022/12/10 10:58:46;;;;;;;14.45;7.97;;;;;;;;;;4993682;28;20033;-73
2022/12/10 11:01:12;;;;;;;10.18;6.07;;;;;;;;;;5028928;28;20033;-73
2022/12/10 11:03:46;;;;;;;17.50;7.20;;;;;;;;;;5039839;28;20052;-73
2022/12/10 11:06:12;;;;;;;12.23;6.22;;;;;;;;;;5007130;28;20049;-73
2022/12/10 11:08:39;;;;;;;9.40;5.57;;;;;;;;;;5027607;28;20121;-74
2022/12/10 11:11:10;;;;;;;15.60;6.30;;;;;;;;;;5023723;28;20462;-73
2022/12/10 11:13:37;;;;;;;11.02;6.28;;;;;;;;;;5035642;28;20029;-74
2022/12/10 11:16:14;;;;;;;15.55;7.13;;;;;;;;;;5029678;28;20041;-73
2022/12/10 11:18:42;;;;;;;16.25;7.50;;;;;;;;;;5024718;28;20037;-74
2022/12/10 11:21:13;;;;;;;9.20;5.72;;;;;;;;;;5006591;28;20441;-74
2022/12/10 11:23:43;;;;;;;12.10;6.10;;;;;;;;;;5022739;28;20029;-74
2022/12/10 11:26:30;;;;;;;13.73;5.50;;;;;;;;;;5038488;28;20045;-74
2022/12/10 11:29:09;;;;;;;11.23;5.70;;;;;;;;;;5013051;28;20107;-74
2022/12/10 11:31:43;;;;;;;11.93;5.60;;;;;;;;;;5000658;28;20625;-74
2022/12/10 11:34:09;;;;;;;9.40;5.43;;;;;;;;;;5019524;28;20044;-74
2022/12/10 11:36:53;;;;;;;7.63;4.70;;;;;;;;;;5019570;28;20041;-74
2022/12/10 11:39:47;;;;;;;11.23;5.50;;;;;;;;;;5032195;28;20091;-74
2022/12/10 11:42:29;;;;;;;11.77;5.70;;;;;;;;;;5009037;28;20181;-74
2022/12/10 11:45:08;;;;;;;10.85;5.47;;;;;;;;;;5019009;28;20025;-74
2022/12/10 11:47:45;;;;;;;12.65;5.85;;;;;;;;;;5034810;28;20037;-74
2022/12/10 11:50:15;;;;;;;8.52;4.80;;;;;;;;;;5018472;28;20457;-74
2022/12/10 11:52:50;;;;;;;10.93;4.00;;;;;;;;;;5023558;28;20049;-75
2022/12/10 11:55:46;;;;;;;9.73;4.63;;;;;;;;;;5023897;28;20030;-74
2022/12/10 11:58:28;;;;;;;14.77;6.88;;;;;;;;;;5014948;28;20120;-74
2022/12/10 12:01:13;;;;;;;15.13;6.43;;;;;;;;;;5041797;28;20076;-75
2022/12/10 12:04:04;;;;;;;10.70;5.10;;;;;;;;;;5037223;28;20465;-74
2022/12/10 12:06:40;;;;;;;17.00;7.13;;;;;;;;;;5037678;28;20561;-75
2022/12/10 12:09:16;;;;;;;7.60;4.32;;;;;;;;;;5024382;28;20172;-74
2022/12/10 12:11:57;;;;;;;8.52;4.22;;;;;;;;;;5039769;28;20048;-75
2022/12/10 12:14:31;;;;;;;8.70;4.38;;;;;;;;;;5028391;28;20045;-74
2022/12/10 12:17:04;;;;;;;;;;;;;;;;;;5030004;28;20449;-74
2022/12/10 12:19:39;;;;;;;9.57;4.82;;;;;;;;;;5024331;28;19921;-74
2022/12/10 12:22:23;;;;;;;27.92;9.75;;;;;;;;;;5021627;28;20037;-74
2022/12/10 12:24:50;;;;;;;24.50;9.75;;;;;;;;;;5018990;28;20061;-75
2022/12/10 12:27:44;;;;;;;4.22;2.67;;;;;;;;;;5006021;28;20057;-74
2022/12/10 12:30:18;;;;;;;23.17;7.50;;;;;;;;;;5022524;28;20132;-75
2022/12/10 12:33:10;;;;;;;21.38;7.63;;;;;;;;;;5036893;28;20039;-75
2022/12/10 12:35:42;;;;;;;31.92;11.20;;;;;;;;;;5037898;28;20042;-75
2022/12/10 12:38:19;;;;;;;27.00;9.48;;;;;;;;;;5014565;28;20022;-74
2022/12/10 12:41:10;;;;;;;12.90;5.57;;;;;;;;;;5025182;28;20038;-74
2022/12/10 12:43:35;;;;;;;21.23;7.82;;;;;;;;;;5021568;28;20026;-75
2022/12/10 12:46:02;;;;;;;9.18;3.83;;;;;;;;;;5024247;28;20107;-74
2022/12/10 12:48:53;;;;;;;13.00;5.20;;;;;;;;;;5039777;28;20081;-74
2022/12/10 12:51:33;;;;;;;16.00;5.95;;;;;;;;;;5047252;28;20049;-74
2022/12/10 12:53:58;;;;;;;9.98;4.93;;;;;;;;;;5034711;28;20420;-74
2022/12/10 12:56:49;;;;;;;7.55;3.35;;;;;;;;;;5048877;28;20037;-75
2022/12/10 12:59:42;;;;;;;6.22;2.35;;;;;;;;;;5017321;28;20926;-74
2022/12/10 13:02:41;;;;;;;4.10;1.88;;;;;;;;;;5016264;28;20045;-74
2022/12/10 13:05:13;;;;;;;3.42;1.80;;;;;;;;;;5013037;28;20099;-74
2022/12/10 13:07:39;;;;;;;4.40;1.98;;;;;;;;;;5004465;28;20042;-75
2022/12/10 13:10:13;;;;;;;3.95;1.80;;;;;;;;;;5050352;28;20026;-74
2022/12/10 13:12:46;;;;;;;8.18;2.03;;;;;;;;;;5031674;28;20038;-75
2022/12/10 13:15:33;;;;;;;5.65;2.50;;;;;;;;;;5031291;28;20041;-74
2022/12/10 13:18:20;;;;;;;3.78;1.65;;;;;;;;;;5012878;28;20140;-74
2022/12/10 13:20:47;;;;;;;3.97;1.75;;;;;;;;;;5020968;28;20030;-74
2022/12/10 13:23:24;;;;;;;2.55;1.35;;;;;;;;;;5022055;28;20394;-74
2022/12/10 13:25:50;;;;;;;3.60;1.50;;;;;;;;;;5031141;28;20057;-74
2022/12/10 13:28:48;;;;;;;5.68;2.88;;;;;;;;;;4900701;28;20073;-73
2022/12/10 13:31:16;;;;;;;3.22;1.67;;;;;;;;;;5006014;28;20050;-74
2022/12/10 13:34:07;;;;;;;5.38;2.10;;;;;;;;;;5024473;28;20091;-75
2022/12/10 13:36:32;;;;;;;4.97;2.00;;;;;;;;;;4997139;28;20030;-75
2022/12/10 13:39:19;;;;;;;5.95;2.58;;;;;;;;;;5021180;28;20474;-75
2022/12/10 13:45:23;;;;;;;4.03;1.73;;;;;;;;;;5022889;28;20048;-74
2022/12/10 13:47:55;;;;;;;2.75;1.45;;;;;;;;;;5020338;28;20076;-75
2022/12/10 13:50:29;;;;;;;3.03;1.42;;;;;;;;;;5017204;28;20053;-75
2022/12/10 13:52:59;;;;;;;5.78;1.52;;;;;;;;;;5018021;28;20087;-76
2022/12/10 13:55:39;;;;;;;2.75;1.48;;;;;;;;;;5004759;28;20401;-76
2022/12/10 13:58:22;;;;;;;3.85;1.65;;;;;;;;;;5027698;28;20034;-75
2022/12/10 14:01:03;;;;;;;2.33;1.25;;;;;;;;;;5027300;28;20041;-74
2022/12/10 14:03:34;;;;;;;4.15;1.63;;;;;;;;;;5028269;28;20038;-75
2022/12/10 14:06:24;;;;;;;6.18;1.90;;;;;;;;;;5004013;28;20048;-75
2022/12/10 14:08:49;;;;;;;4.93;1.58;;;;;;;;;;4998868;28;20135;-75
2022/12/10 14:11:21;;;;;;;4.95;1.98;;;;;;;;;;5017676;28;20042;-75
2022/12/10 14:13:52;;;;;;;4.28;1.98;;;;;;;;;;5032222;28;20043;-75
2022/12/10 14:16:21;;;;;;;2.05;1.20;;;;;;;;;;5027370;28;20038;-75
2022/12/10 14:18:54;;;;;;;4.95;1.85;;;;;;;;;;5012239;28;20026;-75
2022/12/10 14:21:19;;;;;;;6.15;1.70;;;;;;;;;;5034735;28;20044;-75
2022/12/10 14:23:47;;;;;;;1.63;0.93;;;;;;;;;;5021914;28;20029;-76
2022/12/10 14:26:19;;;;;;;2.80;1.40;;;;;;;;;;4996621;28;20060;-75
2022/12/10 14:28:50;;;;;;;5.78;1.80;;;;;;;;;;5041588;28;20072;-75
2022/12/10 14:31:19;;;;;;;5.93;2.05;;;;;;;;;;5005220;28;20041;-75
2022/12/10 14:33:46;;;;;;;4.07;1.92;;;;;;;;;;5020706;28;20096;-75
2022/12/10 14:36:16;;;;;;;5.28;2.40;;;;;;;;;;5044272;28;20033;-75
2022/12/10 14:38:42;;;;;;;5.05;2.83;;;;;;;;;;5039021;28;20045;-75
2022/12/10 14:41:07;;;;;;;3.90;1.63;;;;;;;;;;5028214;28;20046;-74
2022/12/10 14:43:37;;;;;;;8.07;1.75;;;;;;;;;;5023596;28;20080;-75
2022/12/10 14:46:03;;;;;;;5.30;2.45;;;;;;;;;;4998876;28;20060;-75
2022/12/10 14:48:29;;;;;;;8.82;2.42;;;;;;;;;;5016809;28;20058;-75
2022/12/10 14:51:02;;;;;;;8.10;3.10;;;;;;;;;;5015453;28;20048;-75
2022/12/10 14:53:28;;;;;;;5.50;2.55;;;;;;;;;;5041481;28;20030;-75
2022/12/10 14:56:03;;;;;;;5.03;2.50;;;;;;;;;;5026499;28;20101;-75
2022/12/10 14:58:39;;;;;;;5.68;2.45;;;;;;;;;;5044497;28;20385;-75
2022/12/10 15:01:05;;;;;;;6.22;2.50;;;;;;;;;;5046825;28;20136;-75
2022/12/10 15:03:34;;;;;;;4.78;2.40;;;;;;;;;;5042051;28;20030;-74
2022/12/10 15:06:02;;;;;;;8.40;2.38;;;;;;;;;;5032387;28;20121;-75
2022/12/10 15:08:28;;;;;;;7.13;2.60;;;;;;;;;;5003920;28;20485;-75